<?xml version='1.0' encoding='UTF-8' ?><gpx version="1.1" creator="HikingTrailHK" xsi:schemaLocation="http://www.topografix.com/GPX/1/1 http://www.topografix.com/GPX/1/1/gpx.xsd" xmlns="http://www.topografix.com/GPX/1/1" xmlns:xsi="http://www.w3.org/2001/XMLSchema-instance"><metadata><name>棺材角</name><desc></desc></metadata><wpt lat="22.464335816431742" lon="114.33868386404419"><name>灣仔西</name></wpt><wpt lat="22.473695030212326" lon="114.34154513964125"><name>望樓仔</name></wpt><wpt lat="22.47889397659685" lon="114.34130627580186"><name>棺材角</name></wpt><trk><trkseg><trkpt lat="22.461923" lon="114.342182"><ele>10.5</ele><time>2020-03-10T07:02:34.968Z</time></trkpt><trkpt lat="22.461926" lon="114.342184"><ele>13.3</ele><time>2020-03-10T07:03:00.594Z</time></trkpt><trkpt lat="22.46209" lon="114.342276"><ele>14.6</ele><time>2020-03-10T07:03:36.943Z</time></trkpt><trkpt lat="22.462118" lon="114.34221"><ele>14.9</ele><time>2020-03-10T07:03:48.599Z</time></trkpt><trkpt lat="22.463606" lon="114.33948"><ele>26.5</ele><time>2020-03-10T07:12:03.826Z</time></trkpt><trkpt lat="22.463896" lon="114.339115"><ele>27.7</ele><time>2020-03-10T07:13:13.982Z</time></trkpt><trkpt lat="22.464329" lon="114.33867"><ele>28.8</ele><time>2020-03-10T07:14:43.563Z</time></trkpt><trkpt lat="22.464489" lon="114.338748"><ele>28.9</ele><time>2020-03-10T07:15:07.879Z</time></trkpt><trkpt lat="22.464717" lon="114.338858"><ele>30.0</ele><time>2020-03-10T07:15:51.089Z</time></trkpt><trkpt lat="22.466539" lon="114.33933"><ele>33.2</ele><time>2020-03-10T07:20:29.876Z</time></trkpt><trkpt lat="22.467074" lon="114.339373"><ele>32.8</ele><time>2020-03-10T07:21:41.460Z</time></trkpt><trkpt lat="22.467392" lon="114.33978"><ele>30.9</ele><time>2020-03-10T07:22:47.179Z</time></trkpt><trkpt lat="22.468244" lon="114.339973"><ele>25.2</ele><time>2020-03-10T07:24:43.329Z</time></trkpt><trkpt lat="22.468742" lon="114.340488"><ele>24.8</ele><time>2020-03-10T07:26:15.243Z</time></trkpt><trkpt lat="22.469337" lon="114.340682"><ele>26.6</ele><time>2020-03-10T07:27:54.362Z</time></trkpt><trkpt lat="22.469511" lon="114.340955"><ele>29.4</ele><time>2020-03-10T07:29:00.454Z</time></trkpt><trkpt lat="22.469588" lon="114.341261"><ele>33.6</ele><time>2020-03-10T07:30:17.359Z</time></trkpt><trkpt lat="22.469487" lon="114.341456"><ele>36.4</ele><time>2020-03-10T07:31:10.123Z</time></trkpt><trkpt lat="22.469559" lon="114.341531"><ele>37.6</ele><time>2020-03-10T07:31:34.258Z</time></trkpt><trkpt lat="22.469645" lon="114.341572"><ele>38.6</ele><time>2020-03-10T07:31:55.797Z</time></trkpt><trkpt lat="22.469848" lon="114.34161"><ele>40.5</ele><time>2020-03-10T07:32:40.387Z</time></trkpt><trkpt lat="22.470096" lon="114.341631"><ele>41.5</ele><time>2020-03-10T07:33:22.580Z</time></trkpt><trkpt lat="22.470657" lon="114.341717"><ele>49.3</ele><time>2020-03-10T07:35:48.384Z</time></trkpt><trkpt lat="22.471237" lon="114.341878"><ele>55.8</ele><time>2020-03-10T07:38:06.781Z</time></trkpt><trkpt lat="22.471581" lon="114.341953"><ele>58.5</ele><time>2020-03-10T07:39:17.904Z</time></trkpt><trkpt lat="22.47193" lon="114.341932"><ele>61.7</ele><time>2020-03-10T07:40:33.345Z</time></trkpt><trkpt lat="22.472068" lon="114.341851"><ele>62.9</ele><time>2020-03-10T07:41:05.093Z</time></trkpt><trkpt lat="22.472242" lon="114.341819"><ele>64.3</ele><time>2020-03-10T07:41:41.244Z</time></trkpt><trkpt lat="22.472579" lon="114.341653"><ele>66.3</ele><time>2020-03-10T07:42:48.650Z</time></trkpt><trkpt lat="22.472673" lon="114.341647"><ele>66.2</ele><time>2020-03-10T07:43:01.215Z</time></trkpt><trkpt lat="22.472886" lon="114.341562"><ele>65.5</ele><time>2020-03-10T07:43:31.507Z</time></trkpt><trkpt lat="22.473157" lon="114.341585"><ele>64.4</ele><time>2020-03-10T07:44:07.779Z</time></trkpt><trkpt lat="22.473253" lon="114.341568"><ele>64.1</ele><time>2020-03-10T07:44:20.759Z</time></trkpt><trkpt lat="22.473527" lon="114.34166"><ele>63.4</ele><time>2020-03-10T07:44:59.039Z</time></trkpt><trkpt lat="22.473849" lon="114.341599"><ele>62.7</ele><time>2020-03-10T07:45:42.658Z</time></trkpt><trkpt lat="22.473941" lon="114.341542"><ele>62.3</ele><time>2020-03-10T07:45:56.804Z</time></trkpt><trkpt lat="22.474066" lon="114.341492"><ele>61.9</ele><time>2020-03-10T07:46:14.586Z</time></trkpt><trkpt lat="22.474334" lon="114.341422"><ele>60.2</ele><time>2020-03-10T07:46:51.373Z</time></trkpt><trkpt lat="22.474596" lon="114.341417"><ele>59.4</ele><time>2020-03-10T07:47:26.338Z</time></trkpt><trkpt lat="22.47475" lon="114.341465"><ele>59.1</ele><time>2020-03-10T07:47:47.722Z</time></trkpt><trkpt lat="22.475162" lon="114.341556"><ele>56.4</ele><time>2020-03-10T07:48:43.830Z</time></trkpt><trkpt lat="22.475375" lon="114.341567"><ele>54.6</ele><time>2020-03-10T07:49:12.284Z</time></trkpt><trkpt lat="22.475623" lon="114.341481"><ele>52.6</ele><time>2020-03-10T07:49:47.033Z</time></trkpt><trkpt lat="22.476118" lon="114.341524"><ele>46.5</ele><time>2020-03-10T07:50:53.295Z</time></trkpt><trkpt lat="22.476436" lon="114.341326"><ele>42.3</ele><time>2020-03-10T07:51:42.249Z</time></trkpt><trkpt lat="22.476713" lon="114.341342"><ele>39.0</ele><time>2020-03-10T07:52:19.263Z</time></trkpt><trkpt lat="22.476976" lon="114.341304"><ele>37.0</ele><time>2020-03-10T07:52:54.668Z</time></trkpt><trkpt lat="22.477123" lon="114.341344"><ele>36.2</ele><time>2020-03-10T07:53:14.893Z</time></trkpt><trkpt lat="22.477298" lon="114.341358"><ele>35.5</ele><time>2020-03-10T07:53:38.308Z</time></trkpt><trkpt lat="22.477968" lon="114.341545"><ele>28.2</ele><time>2020-03-10T07:55:10.634Z</time></trkpt><trkpt lat="22.478088" lon="114.341621"><ele>27.0</ele><time>2020-03-10T07:55:29.186Z</time></trkpt><trkpt lat="22.478126" lon="114.341626"><ele>25.8</ele><time>2020-03-10T07:55:34.294Z</time></trkpt><trkpt lat="22.478334" lon="114.341551"><ele>22.4</ele><time>2020-03-10T07:56:03.548Z</time></trkpt><trkpt lat="22.478399" lon="114.341502"><ele>20.5</ele><time>2020-03-10T07:56:14.117Z</time></trkpt><trkpt lat="22.478454" lon="114.341499"><ele>18.7</ele><time>2020-03-10T07:56:21.466Z</time></trkpt><trkpt lat="22.478588" lon="114.34143"><ele>17.0</ele><time>2020-03-10T07:56:41.267Z</time></trkpt><trkpt lat="22.478637" lon="114.341263"><ele>15.4</ele><time>2020-03-10T07:57:02.871Z</time></trkpt><trkpt lat="22.478719" lon="114.341226"><ele>14.0</ele><time>2020-03-10T07:57:14.725Z</time></trkpt><trkpt lat="22.478715" lon="114.341195"><ele>12.6</ele><time>2020-03-10T07:57:18.585Z</time></trkpt><trkpt lat="22.478715" lon="114.341195"><ele>0.0</ele><time>2020-03-10T07:57:18.585Z</time></trkpt><trkpt lat="22.478763" lon="114.341226"><ele>0.0</ele><time>2020-03-10T07:57:26.043Z</time></trkpt><trkpt lat="22.478794" lon="114.341158"><ele>0.0</ele><time>2020-03-10T07:57:35.392Z</time></trkpt><trkpt lat="22.478888" lon="114.341408"><ele>0.0</ele><time>2020-03-10T07:58:08.670Z</time></trkpt><trkpt lat="22.478853" lon="114.34157"><ele>0.0</ele><time>2020-03-10T07:58:29.182Z</time></trkpt><trkpt lat="22.478777" lon="114.341644"><ele>0.0</ele><time>2020-03-10T07:58:42.824Z</time></trkpt><trkpt lat="22.478792" lon="114.341813"><ele>0.0</ele><time>2020-03-10T07:59:03.757Z</time></trkpt><trkpt lat="22.478737" lon="114.341796"><ele>0.0</ele><time>2020-03-10T07:59:11.389Z</time></trkpt><trkpt lat="22.478576" lon="114.341946"><ele>0.0</ele><time>2020-03-10T07:59:39.736Z</time></trkpt><trkpt lat="22.478476" lon="114.342158"><ele>0.0</ele><time>2020-03-10T08:00:09.083Z</time></trkpt><trkpt lat="22.478349" lon="114.342234"><ele>0.7</ele><time>2020-03-10T08:00:34.748Z</time></trkpt><trkpt lat="22.47828" lon="114.342276"><ele>15.0</ele><time>2020-03-10T08:02:54.012Z</time></trkpt><trkpt lat="22.478264" lon="114.342371"><ele>16.7</ele><time>2020-03-10T08:03:21.219Z</time></trkpt><trkpt lat="22.478232" lon="114.342308"><ele>17.5</ele><time>2020-03-10T08:03:37.283Z</time></trkpt><trkpt lat="22.478019" lon="114.342374"><ele>18.3</ele><time>2020-03-10T08:04:14.046Z</time></trkpt><trkpt lat="22.477979" lon="114.34233"><ele>18.6</ele><time>2020-03-10T08:04:24.354Z</time></trkpt><trkpt lat="22.477893" lon="114.342403"><ele>18.8</ele><time>2020-03-10T08:04:40.738Z</time></trkpt><trkpt lat="22.477636" lon="114.342466"><ele>19.0</ele><time>2020-03-10T08:05:17.699Z</time></trkpt><trkpt lat="22.47769" lon="114.34235"><ele>19.1</ele><time>2020-03-10T08:05:34.614Z</time></trkpt><trkpt lat="22.477891" lon="114.342342"><ele>19.2</ele><time>2020-03-10T08:06:02.352Z</time></trkpt><trkpt lat="22.477995" lon="114.342288"><ele>19.3</ele><time>2020-03-10T08:06:18.643Z</time></trkpt><trkpt lat="22.477971" lon="114.342256"><ele>19.3</ele><time>2020-03-10T08:06:23.724Z</time></trkpt><trkpt lat="22.478109" lon="114.342087"><ele>19.4</ele><time>2020-03-10T08:06:52.431Z</time></trkpt><trkpt lat="22.478104" lon="114.341886"><ele>19.5</ele><time>2020-03-10T08:07:18.123Z</time></trkpt><trkpt lat="22.478088" lon="114.341621"><ele>19.5</ele><time>2020-03-10T08:07:50.866Z</time></trkpt><trkpt lat="22.477968" lon="114.341545"><ele>19.1</ele><time>2020-03-10T08:08:09.418Z</time></trkpt><trkpt lat="22.477298" lon="114.341358"><ele>19.7</ele><time>2020-03-10T08:09:47.144Z</time></trkpt><trkpt lat="22.477123" lon="114.341344"><ele>20.1</ele><time>2020-03-10T08:10:14.159Z</time></trkpt><trkpt lat="22.476976" lon="114.341304"><ele>20.5</ele><time>2020-03-10T08:10:37.984Z</time></trkpt><trkpt lat="22.476713" lon="114.341342"><ele>21.3</ele><time>2020-03-10T08:11:20.589Z</time></trkpt><trkpt lat="22.476436" lon="114.341326"><ele>23.4</ele><time>2020-03-10T08:12:16.503Z</time></trkpt><trkpt lat="22.476118" lon="114.341524"><ele>27.0</ele><time>2020-03-10T08:13:37.857Z</time></trkpt><trkpt lat="22.475623" lon="114.341481"><ele>32.9</ele><time>2020-03-10T08:15:37.219Z</time></trkpt><trkpt lat="22.475375" lon="114.341567"><ele>34.7</ele><time>2020-03-10T08:16:28.168Z</time></trkpt><trkpt lat="22.475162" lon="114.341556"><ele>36.2</ele><time>2020-03-10T08:17:10.122Z</time></trkpt><trkpt lat="22.47475" lon="114.341465"><ele>40.3</ele><time>2020-03-10T08:18:43.130Z</time></trkpt><trkpt lat="22.474596" lon="114.341417"><ele>41.4</ele><time>2020-03-10T08:19:14.414Z</time></trkpt><trkpt lat="22.474334" lon="114.341422"><ele>43.1</ele><time>2020-03-10T08:20:04.679Z</time></trkpt><trkpt lat="22.474066" lon="114.341492"><ele>46.5</ele><time>2020-03-10T08:21:12.066Z</time></trkpt><trkpt lat="22.473941" lon="114.341542"><ele>47.8</ele><time>2020-03-10T08:21:41.548Z</time></trkpt><trkpt lat="22.473849" lon="114.341599"><ele>49.1</ele><time>2020-03-10T08:22:07.394Z</time></trkpt><trkpt lat="22.473527" lon="114.34166"><ele>52.6</ele><time>2020-03-10T08:23:22.513Z</time></trkpt><trkpt lat="22.473253" lon="114.341568"><ele>55.5</ele><time>2020-03-10T08:24:26.893Z</time></trkpt><trkpt lat="22.473157" lon="114.341585"><ele>56.4</ele><time>2020-03-10T08:24:47.973Z</time></trkpt><trkpt lat="22.472886" lon="114.341562"><ele>58.7</ele><time>2020-03-10T08:25:44.945Z</time></trkpt><trkpt lat="22.472673" lon="114.341647"><ele>59.4</ele><time>2020-03-10T08:26:21.537Z</time></trkpt><trkpt lat="22.472579" lon="114.341653"><ele>59.7</ele><time>2020-03-10T08:26:36.802Z</time></trkpt><trkpt lat="22.472242" lon="114.341819"><ele>61.9</ele><time>2020-03-10T08:27:46.008Z</time></trkpt><trkpt lat="22.472068" lon="114.341851"><ele>62.3</ele><time>2020-03-10T08:28:13.159Z</time></trkpt><trkpt lat="22.47193" lon="114.341932"><ele>62.7</ele><time>2020-03-10T08:28:37.707Z</time></trkpt><trkpt lat="22.471581" lon="114.341953"><ele>63.4</ele><time>2020-03-10T08:29:30.647Z</time></trkpt><trkpt lat="22.471237" lon="114.341878"><ele>64.1</ele><time>2020-03-10T08:30:23.771Z</time></trkpt><trkpt lat="22.470657" lon="114.341717"><ele>66.2</ele><time>2020-03-10T08:32:02.568Z</time></trkpt><trkpt lat="22.470096" lon="114.341631"><ele>62.9</ele><time>2020-03-10T08:33:18.172Z</time></trkpt><trkpt lat="22.469848" lon="114.34161"><ele>60.5</ele><time>2020-03-10T08:33:51.365Z</time></trkpt><trkpt lat="22.469645" lon="114.341572"><ele>58.5</ele><time>2020-03-10T08:34:18.855Z</time></trkpt><trkpt lat="22.469559" lon="114.341531"><ele>57.6</ele><time>2020-03-10T08:34:31.394Z</time></trkpt><trkpt lat="22.469487" lon="114.341456"><ele>56.7</ele><time>2020-03-10T08:34:44.729Z</time></trkpt><trkpt lat="22.469282" lon="114.341569"><ele>54.9</ele><time>2020-03-10T08:35:15.428Z</time></trkpt><trkpt lat="22.467949" lon="114.341475"><ele>52.9</ele><time>2020-03-10T08:38:13.673Z</time></trkpt><trkpt lat="22.467313" lon="114.341647"><ele>59.4</ele><time>2020-03-10T08:40:39.647Z</time></trkpt><trkpt lat="22.467033" lon="114.342511"><ele>67.5</ele><time>2020-03-10T08:43:45.445Z</time></trkpt><trkpt lat="22.467174" lon="114.343471"><ele>70.4</ele><time>2020-03-10T08:46:11.405Z</time></trkpt><trkpt lat="22.466958" lon="114.343814"><ele>69.6</ele><time>2020-03-10T08:47:02.586Z</time></trkpt><trkpt lat="22.466034" lon="114.344064"><ele>71.7</ele><time>2020-03-10T08:49:28.574Z</time></trkpt><trkpt lat="22.465926" lon="114.344093"><ele>90.3</ele><time>2020-03-10T08:52:30.822Z</time></trkpt><trkpt lat="22.465052" lon="114.344201"><ele>86.6</ele><time>2020-03-10T08:54:28.201Z</time></trkpt><trkpt lat="22.463545" lon="114.344158"><ele>84.4</ele><time>2020-03-10T08:57:49.356Z</time></trkpt><trkpt lat="22.463335" lon="114.344412"><ele>84.1</ele><time>2020-03-10T08:58:31.381Z</time></trkpt><trkpt lat="22.463369" lon="114.345161"><ele>76.3</ele><time>2020-03-10T09:00:03.852Z</time></trkpt><trkpt lat="22.463233" lon="114.345491"><ele>71.0</ele><time>2020-03-10T09:00:48.407Z</time></trkpt><trkpt lat="22.462953" lon="114.345536"><ele>65.4</ele><time>2020-03-10T09:01:26.178Z</time></trkpt><trkpt lat="22.461899" lon="114.344973"><ele>49.6</ele><time>2020-03-10T09:04:03.020Z</time></trkpt><trkpt lat="22.461386" lon="114.343879"><ele>38.2</ele><time>2020-03-10T09:06:34.295Z</time></trkpt><trkpt lat="22.461938" lon="114.342634"><ele>21.6</ele><time>2020-03-10T09:09:24.572Z</time></trkpt><trkpt lat="22.46209" lon="114.342276"><ele>20.2</ele><time>2020-03-10T09:10:13.154Z</time></trkpt><trkpt lat="22.461926" lon="114.342184"><ele>19.9</ele><time>2020-03-10T09:10:37.803Z</time></trkpt><trkpt lat="22.461473" lon="114.341929"><ele>17.6</ele><time>2020-03-10T09:11:45.938Z</time></trkpt><trkpt lat="22.46138" lon="114.341873"><ele>16.9</ele><time>2020-03-10T09:12:00.140Z</time></trkpt><trkpt lat="22.461363" lon="114.341887"><ele>16.0</ele><time>2020-03-10T09:12:02.992Z</time></trkpt></trkseg></trk></gpx>